X  Chiuso Dati meteorologici dell'aviazione (METAR)     LIPX Verona-Villafranca Valerio Catullo Airport
Temperatura
4°C Temperatura
3°C Punto di rugiada
93% Umidità



Vento
2 MPH
3 KM/O
1 M/S
2 KTS



Calmo
N
Condizioni attuali

Parzialmente nuvoloso Parzialmente nuvoloso
Pressione 1009.82 (hPa) - 29.82 (inHg)
Visibilità 6 (miglio) - 9.7 (km)
Aeroporto
Codice-Aeroporto LIPX

Posizione: Verona-Villafranca Valerio Catullo Airport
Distanza: 0 (mi)

Metar:
LIPX 250450Z VRB02KT 9999 FEW040 04/03 Q1010

Ore: 25-02-2024 04:50 CET